Time;durP1;ratioP1;P1;durP2;ratioP2;P2;SDS_P1;SDS_P2;PMS_P1;PMS_P2;Temp;Humidity;BMP_temperature;BMP_pressure;BME280_temperature;BME280_humidity;BME280_pressure;Samples;Min_cycle;Max_cycle;Signal;HPM_P1;HPM_P2
2024/03/05 00:00:11;;;;;;;25.98;13.40;;;;;;;3.11;100.00;100893.00;5086570;28;20424;-84
2024/03/05 00:02:41;;;;;;;29.42;14.60;;;;;;;3.15;100.00;100900.41;5061133;28;20749;-83
2024/03/05 00:05:13;;;;;;;24.52;14.18;;;;;;;3.24;100.00;100892.84;5074866;28;21094;-83
2024/03/05 00:07:46;;;;;;;26.47;13.40;;;;;;;3.27;100.00;100894.28;5066450;28;20455;-83
2024/03/05 00:10:20;;;;;;;25.38;13.82;;;;;;;3.27;100.00;100902.34;5067347;28;20430;-83
2024/03/05 00:12:53;;;;;;;34.55;14.43;;;;;;;3.21;100.00;100891.44;5093254;28;20414;-83
2024/03/05 00:15:27;;;;;;;25.40;14.02;;;;;;;3.12;100.00;100894.66;5068500;28;20418;-83
2024/03/05 00:18:00;;;;;;;25.03;13.80;;;;;;;3.18;100.00;100886.50;5080170;28;22315;-83
2024/03/05 00:20:34;;;;;;;25.42;13.15;;;;;;;3.25;100.00;100888.31;5066252;28;20422;-83
2024/03/05 00:23:07;;;;;;;26.45;13.00;;;;;;;3.30;100.00;100894.66;5082346;28;20438;-83
2024/03/05 00:25:40;;;;;;;25.83;13.38;;;;;;;3.28;100.00;100888.66;5073286;28;20420;-83
2024/03/05 00:28:08;;;;;;;27.63;13.38;;;;;;;3.19;100.00;100903.44;5066798;28;20430;-83
2024/03/05 00:30:45;;;;;;;25.63;13.80;;;;;;;3.29;100.00;100897.56;5070126;28;20433;-83
2024/03/05 00:33:13;;;;;;;26.27;13.02;;;;;;;3.27;100.00;100892.38;5065919;28;20430;-83
2024/03/05 00:35:42;;;;;;;26.80;13.38;;;;;;;3.30;100.00;100900.03;5063334;28;20782;-83
2024/03/05 00:38:15;;;;;;;24.35;12.48;;;;;;;3.26;100.00;100900.69;5065160;28;20406;-83
2024/03/05 00:40:48;;;;;;;28.52;13.55;;;;;;;3.21;100.00;100899.50;5071508;28;20425;-83
2024/03/05 00:43:21;;;;;;;25.95;13.65;;;;;;;3.18;100.00;100899.16;5067391;28;20420;-84
2024/03/05 00:45:56;;;;;;;25.17;13.43;;;;;;;3.35;100.00;100905.53;5084364;28;20429;-83
2024/03/05 00:48:24;;;;;;;25.50;12.83;;;;;;;3.14;100.00;100906.81;5090990;28;20413;-83
2024/03/05 00:50:57;;;;;;;24.10;12.80;;;;;;;3.10;100.00;100911.00;5083455;28;20425;-83
2024/03/05 00:53:25;;;;;;;25.00;13.18;;;;;;;3.12;100.00;100897.34;5083103;28;20791;-83
2024/03/05 00:55:58;;;;;;;24.35;13.52;;;;;;;3.16;100.00;100903.91;5055695;28;20408;-83
2024/03/05 00:58:33;;;;;;;27.27;13.10;;;;;;;3.18;100.00;100891.06;5068101;28;20446;-83
2024/03/05 01:01:07;;;;;;;27.45;13.75;;;;;;;3.05;100.00;100903.63;5067941;28;20416;-83
2024/03/05 01:03:40;;;;;;;24.23;13.20;;;;;;;3.01;100.00;100913.19;5069426;28;20886;-83
2024/03/05 01:06:14;;;;;;;27.90;13.35;;;;;;;2.93;100.00;100891.13;5067145;28;20431;-83
2024/03/05 01:08:42;;;;;;;24.63;12.77;;;;;;;3.05;100.00;100900.94;5066911;28;20410;-83
2024/03/05 01:11:15;;;;;;;26.58;13.30;;;;;;;3.14;100.00;100896.06;5078466;28;20432;-83
2024/03/05 01:13:43;;;;;;;24.20;12.55;;;;;;;3.03;100.00;100894.94;5074608;28;20423;-83
2024/03/05 01:16:18;;;;;;;26.90;13.00;;;;;;;2.99;100.00;100903.69;5065842;28;20416;-83
2024/03/05 01:18:46;;;;;;;22.63;12.93;;;;;;;2.91;100.00;100906.69;5066067;28;20418;-83
2024/03/05 01:21:14;;;;;;;25.42;13.10;;;;;;;2.95;100.00;100897.13;5088563;28;20866;-84
2024/03/05 01:23:48;;;;;;;25.60;13.17;;;;;;;3.09;100.00;100895.91;5069922;28;20502;-83
2024/03/05 01:26:22;;;;;;;26.27;12.97;;;;;;;2.87;100.00;100903.59;5073760;28;20438;-83
2024/03/05 01:28:51;;;;;;;25.88;12.57;;;;;;;3.02;100.00;100895.97;5077346;28;20814;-83
2024/03/05 01:31:26;;;;;;;26.98;13.00;;;;;;;2.96;100.00;100913.03;5086943;28;20425;-83
2024/03/05 01:33:59;;;;;;;28.08;12.75;;;;;;;3.03;100.00;100902.22;5074094;28;20414;-83
2024/03/05 01:36:32;;;;;;;23.55;12.30;;;;;;;3.00;100.00;100903.47;5063751;28;20777;-84
2024/03/05 01:39:00;;;;;;;23.95;12.23;;;;;;;3.19;100.00;100901.59;5069708;28;20414;-84
2024/03/05 01:41:28;;;;;;;26.10;13.00;;;;;;;3.10;100.00;100902.94;5063683;28;20896;-83
2024/03/05 01:44:03;;;;;;;23.17;12.68;;;;;;;3.09;100.00;100905.88;5082885;28;20418;-83
2024/03/05 01:46:33;;;;;;;25.43;12.30;;;;;;;3.01;100.00;100905.13;5062722;28;20426;-83
2024/03/05 01:49:02;;;;;;;22.70;12.27;;;;;;;2.93;100.00;100905.41;5079120;28;20403;-83
2024/03/05 01:51:36;;;;;;;24.05;12.70;;;;;;;3.01;100.00;100906.97;5060150;28;20423;-83
2024/03/05 01:54:10;;;;;;;23.65;12.20;;;;;;;3.10;100.00;100907.50;5065155;28;20427;-83
2024/03/05 01:56:48;;;;;;;23.23;12.07;;;;;;;3.02;100.00;100909.44;5072178;28;20426;-84
2024/03/05 01:59:22;;;;;;;29.40;13.57;;;;;;;3.08;100.00;100904.22;5079522;28;20422;-83
2024/03/05 02:01:57;;;;;;;26.42;12.38;;;;;;;3.05;100.00;100902.78;5064066;28;20547;-83
2024/03/05 02:04:31;;;;;;;26.33;12.50;;;;;;;3.08;100.00;100904.22;5066731;28;20421;-83
2024/03/05 02:07:07;;;;;;;25.45;12.25;;;;;;;3.07;100.00;100892.66;5086291;28;20419;-83
2024/03/05 02:09:41;;;;;;;25.27;11.43;;;;;;;3.06;100.00;100901.75;5074129;28;20421;-83
2024/03/05 02:12:14;;;;;;;25.50;12.15;;;;;;;3.04;100.00;100896.59;5077445;28;20429;-83
2024/03/05 02:14:42;;;;;;;24.58;12.30;;;;;;;2.89;100.00;100896.97;5077364;28;20775;-84
2024/03/05 02:17:17;;;;;;;23.67;12.43;;;;;;;2.89;100.00;100898.84;5063447;28;20428;-83
2024/03/05 02:19:51;;;;;;;24.17;12.38;;;;;;;2.97;100.00;100890.47;5061471;28;20421;-83
2024/03/05 02:22:25;;;;;;;26.77;12.50;;;;;;;2.89;100.00;100899.66;5078372;28;20427;-83
2024/03/05 02:24:59;;;;;;;24.50;12.55;;;;;;;2.96;100.00;100898.78;5083812;28;20412;-83
2024/03/05 02:27:27;;;;;;;23.05;12.32;;;;;;;3.03;100.00;100896.81;5067943;28;20788;-83
2024/03/05 02:29:56;;;;;;;25.05;12.88;;;;;;;2.95;100.00;100902.50;5087181;28;21093;-83
2024/03/05 02:32:30;;;;;;;27.40;13.02;;;;;;;3.04;100.00;100903.84;5062474;28;20433;-83
2024/03/05 02:34:58;;;;;;;28.33;12.52;;;;;;;2.99;100.00;100904.50;5066975;28;20415;-83
2024/03/05 02:37:28;;;;;;;25.58;12.32;;;;;;;3.07;100.00;100900.72;5082477;28;20429;-83
2024/03/05 02:40:03;;;;;;;21.83;12.20;;;;;;;2.89;100.00;100906.91;5059722;28;20431;-83
2024/03/05 02:42:32;;;;;;;25.90;12.63;;;;;;;3.14;100.00;100904.13;5062087;28;20408;-83
2024/03/05 02:45:00;;;;;;;27.65;12.63;;;;;;;3.06;100.00;100909.81;5078248;28;20411;-83
2024/03/05 02:47:28;;;;;;;26.83;13.13;;;;;;;2.96;100.00;100910.34;5075414;28;20403;-83
2024/03/05 02:49:56;;;;;;;26.65;12.98;;;;;;;2.95;100.00;100914.06;5069401;28;20424;-83
2024/03/05 02:52:25;;;;;;;26.42;13.10;;;;;;;2.92;100.00;100902.97;5066726;28;20414;-83
2024/03/05 02:54:59;;;;;;;24.50;12.80;;;;;;;2.91;100.00;100917.44;5086835;28;20425;-83
2024/03/05 02:57:32;;;;;;;25.00;13.65;;;;;;;2.86;100.00;100912.72;5079806;28;20426;-84
2024/03/05 03:00:01;;;;;;;28.90;13.32;;;;;;;2.80;100.00;100917.09;5070858;28;20420;-83
2024/03/05 03:02:29;;;;;;;26.00;12.75;;;;;;;2.87;100.00;100923.25;5069035;28;20426;-83
2024/03/05 03:04:57;;;;;;;24.60;13.25;;;;;;;2.84;100.00;100915.63;5079230;28;20406;-83
2024/03/05 03:07:30;;;;;;;27.17;13.27;;;;;;;2.87;100.00;100928.63;5067249;28;20432;-83
2024/03/05 03:10:00;;;;;;;27.73;12.95;;;;;;;2.88;100.00;100926.75;5063596;28;20427;-83
2024/03/05 03:12:28;;;;;;;26.00;13.20;;;;;;;2.70;100.00;100923.00;5073227;28;21152;-83
2024/03/05 03:14:56;;;;;;;28.30;14.10;;;;;;;2.61;100.00;100923.50;5082861;28;20445;-83
2024/03/05 03:17:30;;;;;;;28.75;13.55;;;;;;;2.46;100.00;100931.88;5080137;28;20408;-83
2024/03/05 03:20:04;;;;;;;28.70;14.27;;;;;;;2.33;100.00;100935.50;5089485;28;20418;-83
2024/03/05 03:22:32;;;;;;;25.63;13.90;;;;;;;2.36;100.00;100935.06;5084989;28;20412;-83
2024/03/05 03:25:09;;;;;;;29.75;14.07;;;;;;;2.32;100.00;100937.38;5086091;28;20430;-83
2024/03/05 03:27:37;;;;;;;26.20;13.48;;;;;;;2.30;100.00;100934.09;5084293;28;20425;-83
2024/03/05 03:30:17;;;;;;;27.08;13.95;;;;;;;2.21;100.00;100936.22;5067973;28;20902;-83
2024/03/05 03:32:50;;;;;;;29.23;14.45;;;;;;;2.10;100.00;100942.31;5075462;28;20414;-83
2024/03/05 03:35:24;;;;;;;32.78;14.25;;;;;;;1.99;100.00;100941.13;5087659;28;20422;-83
2024/03/05 03:37:57;;;;;;;30.42;14.52;;;;;;;1.98;100.00;100938.66;5078785;28;21379;-83
2024/03/05 03:40:33;;;;;;;26.30;13.88;;;;;;;1.96;100.00;100946.94;5091319;28;20447;-83
2024/03/05 03:43:06;;;;;;;26.00;13.60;;;;;;;2.06;100.00;100949.13;5087992;28;20424;-83
2024/03/05 03:45:34;;;;;;;28.50;14.27;;;;;;;2.07;100.00;100948.09;5060249;28;20433;-83
2024/03/05 03:48:03;;;;;;;27.70;14.07;;;;;;;2.01;100.00;100944.41;5069720;28;20417;-83
2024/03/05 03:50:37;;;;;;;29.95;14.43;;;;;;;1.99;100.00;100942.97;5070609;28;20417;-83
2024/03/05 03:53:06;;;;;;;27.23;14.68;;;;;;;1.99;100.00;100943.81;5071997;28;20429;-83
2024/03/05 03:55:36;;;;;;;27.45;13.90;;;;;;;2.01;100.00;100947.09;5067208;28;20450;-84
2024/03/05 03:58:10;;;;;;;26.35;14.15;;;;;;;2.15;100.00;100950.50;5072410;28;20425;-83
2024/03/05 04:00:44;;;;;;;27.15;13.57;;;;;;;2.05;100.00;100947.50;5072125;28;20425;-83
2024/03/05 04:03:17;;;;;;;30.75;13.77;;;;;;;2.16;100.00;100945.97;5067261;28;20768;-83
2024/03/05 04:05:45;;;;;;;29.33;14.93;;;;;;;2.31;100.00;100951.84;5062656;28;20419;-83
2024/03/05 04:08:14;;;;;;;28.20;14.17;;;;;;;2.28;100.00;100954.13;5084994;28;20425;-83
2024/03/05 04:10:48;;;;;;;32.67;15.63;;;;;;;2.25;100.00;100958.09;5067541;28;20427;-83
2024/03/05 04:13:17;;;;;;;30.23;14.65;;;;;;;2.32;100.00;100966.94;5066870;28;20427;-83
2024/03/05 04:15:45;;;;;;;28.80;14.43;;;;;;;2.35;100.00;100954.94;5077507;28;20452;-83
2024/03/05 04:18:18;;;;;;;28.35;14.43;;;;;;;2.46;100.00;100956.91;5064671;28;20424;-83
2024/03/05 04:20:53;;;;;;;23.98;13.90;;;;;;;2.51;100.00;100957.09;5084687;28;20422;-83
2024/03/05 04:23:21;;;;;;;26.17;13.87;;;;;;;2.39;100.00;100958.84;5070860;28;20449;-82
2024/03/05 04:25:58;;;;;;;28.63;13.88;;;;;;;2.48;100.00;100970.13;5091511;28;20794;-83
2024/03/05 04:28:26;;;;;;;27.90;14.55;;;;;;;2.57;100.00;100973.34;5059374;28;20803;-83
2024/03/05 04:31:07;;;;;;;29.85;14.57;;;;;;;2.69;100.00;100969.75;5054771;28;20434;-83
2024/03/05 04:33:37;;;;;;;30.80;14.25;;;;;;;2.70;100.00;100973.25;5067957;28;20780;-83
2024/03/05 04:36:09;;;;;;;26.73;14.43;;;;;;;2.70;100.00;100978.63;5064264;28;21262;-84
2024/03/05 04:38:42;;;;;;;24.02;13.60;;;;;;;2.69;100.00;100974.28;5062643;28;20434;-83
2024/03/05 04:41:17;;;;;;;28.65;14.43;;;;;;;2.74;100.00;100971.75;5064294;28;20416;-83
2024/03/05 04:43:50;;;;;;;28.77;14.33;;;;;;;2.69;100.00;100987.72;5077408;28;20426;-83
2024/03/05 04:46:24;;;;;;;28.40;14.77;;;;;;;2.80;100.00;100978.13;5064335;28;20412;-84
2024/03/05 04:48:58;;;;;;;29.95;14.70;;;;;;;2.83;100.00;100978.50;5077334;28;20418;-83
2024/03/05 04:51:26;;;;;;;34.07;15.20;;;;;;;2.70;100.00;100975.94;5061776;28;20423;-83
2024/03/05 04:53:59;;;;;;;30.00;14.57;;;;;;;2.95;100.00;100977.78;5062565;28;20423;-83
2024/03/05 04:56:28;;;;;;;24.75;13.60;;;;;;;2.98;100.00;100978.13;5085094;28;20413;-83
2024/03/05 04:59:02;;;;;;;26.80;14.10;;;;;;;2.90;100.00;100978.44;5077544;28;20425;-83
2024/03/05 05:01:35;;;;;;;26.23;13.93;;;;;;;2.72;100.00;100987.25;5071481;28;20430;-83
2024/03/05 05:04:08;;;;;;;26.98;14.27;;;;;;;2.84;100.00;100988.19;5064777;28;20413;-83
2024/03/05 05:06:36;;;;;;;32.03;14.82;;;;;;;2.69;100.00;100985.03;5057239;28;20427;-83
2024/03/05 05:09:09;;;;;;;27.85;14.85;;;;;;;2.79;100.00;100985.38;5074599;28;20438;-83
2024/03/05 05:11:39;;;;;;;26.38;14.85;;;;;;;2.86;100.00;100983.44;5074696;28;20773;-83
2024/03/05 05:14:07;;;;;;;27.13;14.23;;;;;;;2.83;100.00;100983.88;5077986;28;20426;-83
2024/03/05 05:16:40;;;;;;;24.85;14.02;;;;;;;2.82;100.00;100989.47;5063882;28;20950;-83
2024/03/05 05:19:11;;;;;;;28.52;14.23;;;;;;;2.86;100.00;100988.81;5094541;28;20421;-84
2024/03/05 05:21:41;;;;;;;26.85;14.15;;;;;;;2.82;100.00;100986.78;5082959;28;20413;-83
2024/03/05 05:24:09;;;;;;;29.23;13.65;;;;;;;2.88;100.00;101002.03;5080881;28;20402;-83
2024/03/05 05:26:44;;;;;;;23.17;12.82;;;;;;;2.83;100.00;101000.00;5081047;28;20431;-83
2024/03/05 05:29:17;;;;;;;27.35;13.93;;;;;;;2.88;100.00;100996.66;5074813;28;20892;-83
2024/03/05 05:31:45;;;;;;;28.15;13.50;;;;;;;2.87;100.00;101001.22;5063932;28;20431;-83
2024/03/05 05:34:13;;;;;;;28.90;13.32;;;;;;;2.81;100.00;101004.78;5065397;28;20420;-82
2024/03/05 05:36:46;;;;;;;24.30;12.73;;;;;;;2.88;100.00;101002.84;5054563;28;20404;-82
2024/03/05 05:39:24;;;;;;;26.30;13.30;;;;;;;2.88;100.00;101015.47;5084231;28;20429;-83
2024/03/05 05:41:58;;;;;;;24.75;12.77;;;;;;;2.84;100.00;101004.31;5060634;28;20426;-83
2024/03/05 05:44:26;;;;;;;22.90;12.65;;;;;;;2.84;100.00;101008.88;5075413;28;20410;-83
2024/03/05 05:46:56;;;;;;;25.23;12.27;;;;;;;2.75;100.00;101010.19;5063228;28;20425;-83
2024/03/05 05:49:29;;;;;;;23.77;13.00;;;;;;;2.68;100.00;101011.09;5080150;28;20878;-83
2024/03/05 05:52:02;;;;;;;24.02;12.82;;;;;;;2.69;100.00;101018.13;5082764;28;20418;-83
2024/03/05 05:54:42;;;;;;;22.00;11.80;;;;;;;2.77;100.00;101017.00;5070733;28;20420;-83
2024/03/05 05:57:17;;;;;;;21.92;11.35;;;;;;;2.71;100.00;101026.75;5062972;28;20454;-83
2024/03/05 05:59:50;;;;;;;23.92;12.35;;;;;;;2.73;100.00;101031.91;5082766;28;20778;-83
2024/03/05 06:02:19;;;;;;;23.83;11.97;;;;;;;2.65;100.00;101024.97;5064888;28;20441;-83
2024/03/05 06:04:52;;;;;;;24.55;11.88;;;;;;;2.68;100.00;101031.75;5069456;28;20410;-83
2024/03/05 06:07:24;;;;;;;20.60;11.32;;;;;;;2.82;100.00;101032.50;5061905;28;20442;-82
2024/03/05 06:09:57;;;;;;;22.03;11.87;;;;;;;2.58;100.00;101037.59;5065558;28;20902;-83
2024/03/05 06:12:27;;;;;;;23.58;12.10;;;;;;;2.66;100.00;101045.41;5078573;28;20408;-83
2024/03/05 06:15:00;;;;;;;24.83;12.57;;;;;;;2.59;100.00;101046.50;5074690;28;20419;-82
2024/03/05 06:17:34;;;;;;;24.23;12.48;;;;;;;2.52;100.00;101043.88;5067263;28;20425;-83
2024/03/05 06:20:10;;;;;;;25.10;12.25;;;;;;;2.59;100.00;101050.00;5084568;28;20422;-83
2024/03/05 06:22:38;;;;;;;22.30;11.75;;;;;;;2.53;100.00;101054.38;5075208;28;20770;-83
2024/03/05 06:25:09;;;;;;;25.45;12.32;;;;;;;2.45;100.00;101059.22;5082072;28;20428;-83
2024/03/05 06:27:39;;;;;;;24.02;12.63;;;;;;;2.51;100.00;101050.28;5059751;28;20426;-83
2024/03/05 06:30:13;;;;;;;20.75;11.55;;;;;;;2.66;100.00;101058.84;5066978;28;20776;-84
2024/03/05 06:32:47;;;;;;;23.13;12.00;;;;;;;2.60;100.00;101062.41;5083927;28;20412;-82
2024/03/05 06:35:23;;;;;;;21.93;11.60;;;;;;;2.58;100.00;101059.09;5067865;28;20421;-83
2024/03/05 06:37:53;;;;;;;23.52;12.00;;;;;;;2.50;100.00;101062.88;5069973;28;20442;-82
2024/03/05 06:40:26;;;;;;;22.85;11.55;;;;;;;2.67;100.00;101060.50;5082926;28;20417;-81
2024/03/05 06:43:05;;;;;;;22.33;11.57;;;;;;;2.52;100.00;101065.34;5079332;28;20414;-82
2024/03/05 06:45:34;;;;;;;22.38;11.82;;;;;;;2.38;100.00;101070.00;5069652;28;20421;-82
2024/03/05 06:48:08;;;;;;;23.83;11.88;;;;;;;2.40;100.00;101077.84;5070513;28;20412;-83
2024/03/05 06:50:36;;;;;;;25.87;12.03;;;;;;;2.47;100.00;101079.44;5063685;28;20796;-82
2024/03/05 06:58:50;;;;;;;21.33;11.70;;;;;;;2.37;100.00;101079.09;5075843;28;20490;-82
2024/03/05 07:01:19;;;;;;;18.65;11.32;;;;;;;2.29;100.00;101082.84;5060734;28;20437;-82
2024/03/05 07:03:48;;;;;;;22.48;11.52;;;;;;;2.41;100.00;101087.53;5060855;28;20419;-81
2024/03/05 07:06:23;;;;;;;20.70;10.70;;;;;;;2.47;100.00;101084.81;5079701;28;20424;-81
2024/03/05 07:08:54;;;;;;;18.48;10.75;;;;;;;2.49;100.00;101081.91;5083615;28;20412;-81
2024/03/05 07:11:29;;;;;;;20.63;10.35;;;;;;;2.62;100.00;101083.69;5072700;28;20419;-81
2024/03/05 07:14:03;;;;;;;18.37;10.20;;;;;;;2.74;100.00;101084.63;5070734;28;20431;-82
2024/03/05 07:16:36;;;;;;;19.65;10.50;;;;;;;2.63;100.00;101086.16;5065815;28;20431;-83
2024/03/05 07:19:05;;;;;;;20.17;10.40;;;;;;;2.64;100.00;101084.31;5061008;28;20417;-81
2024/03/05 07:21:33;;;;;;;19.65;10.57;;;;;;;2.54;100.00;101093.66;5080083;28;20780;-82
2024/03/05 07:24:07;;;;;;;20.13;10.38;;;;;;;2.58;100.00;101098.59;5081973;28;20984;-83
2024/03/05 07:26:40;;;;;;;19.75;10.55;;;;;;;2.63;100.00;101102.28;5083581;28;20749;-82
2024/03/05 07:29:15;;;;;;;21.00;10.38;;;;;;;2.63;100.00;101104.97;5073516;28;20412;-83
2024/03/05 07:31:49;;;;;;;21.23;9.90;;;;;;;2.71;100.00;101101.22;5078328;28;20431;-84
2024/03/05 07:34:17;;;;;;;17.85;10.05;;;;;;;2.82;100.00;101097.81;5078899;28;20422;-83
2024/03/05 07:36:51;;;;;;;20.50;10.02;;;;;;;2.92;100.00;101110.78;5087364;28;20417;-80
2024/03/05 07:39:24;;;;;;;24.10;9.63;;;;;;;3.00;100.00;101113.19;5036196;28;20909;-84
2024/03/05 07:41:52;;;;;;;17.15;9.32;;;;;;;2.97;100.00;101108.25;5049262;28;20410;-84
2024/03/05 07:44:27;;;;;;;19.33;9.45;;;;;;;2.91;100.00;101106.44;5057831;28;20425;-83
2024/03/05 07:47:00;;;;;;;20.63;9.35;;;;;;;2.78;100.00;101107.34;5053478;28;20426;-84
2024/03/05 07:49:28;;;;;;;18.35;9.30;;;;;;;2.79;100.00;101113.53;5058673;28;20407;-84
2024/03/05 07:51:57;;;;;;;19.15;8.98;;;;;;;2.70;100.00;101116.50;5067723;28;20410;-82
2024/03/05 07:54:30;;;;;;;20.08;9.20;;;;;;;2.73;100.00;101123.28;5068187;28;20426;-82
2024/03/05 07:57:03;;;;;;;18.57;9.47;;;;;;;2.77;100.00;101113.75;5054618;28;20429;-83
2024/03/05 07:59:38;;;;;;;17.40;9.40;;;;;;;2.92;100.00;101113.47;5051163;28;20430;-83
2024/03/05 08:02:07;;;;;;;15.43;9.23;;;;;;;2.71;100.00;101120.03;5066670;28;20430;-83
2024/03/05 08:04:40;;;;;;;17.42;9.48;;;;;;;2.93;100.00;101120.50;5052768;28;20422;-83
2024/03/05 08:07:11;;;;;;;18.77;9.38;;;;;;;2.93;100.00;101123.19;5053347;28;20448;-83
2024/03/05 08:09:44;;;;;;;17.80;9.03;;;;;;;2.98;100.00;101130.56;5052649;28;20426;-83
2024/03/05 08:12:18;;;;;;;18.02;9.63;;;;;;;3.08;100.00;101128.25;5052665;28;20425;-83
2024/03/05 08:14:47;;;;;;;15.98;9.35;;;;;;;3.23;100.00;101126.03;5053545;28;20420;-83
2024/03/05 08:17:16;;;;;;;16.52;9.90;;;;;;;3.25;100.00;101133.91;5070404;28;20406;-84
2024/03/05 08:19:49;;;;;;;18.83;9.40;;;;;;;3.31;100.00;101126.81;5069952;28;20410;-84
2024/03/05 08:22:20;;;;;;;21.15;9.25;;;;;;;3.37;100.00;101134.81;5061140;28;20406;-83
2024/03/05 08:24:53;;;;;;;18.88;9.15;;;;;;;3.42;100.00;101130.66;5075918;28;20414;-84
2024/03/05 08:27:21;;;;;;;19.80;9.73;;;;;;;3.45;100.00;101130.19;5055739;28;20410;-83
2024/03/05 08:29:56;;;;;;;16.33;8.98;;;;;;;3.66;100.00;101121.72;5074304;28;20417;-83
2024/03/05 08:32:29;;;;;;;18.45;9.40;;;;;;;3.77;100.00;101124.69;5048419;28;20422;-84
2024/03/05 08:34:57;;;;;;;19.88;9.52;;;;;;;3.70;100.00;101125.63;5065710;28;20436;-84
2024/03/05 08:37:25;;;;;;;19.93;10.13;;;;;;;3.53;100.00;101129.91;5054188;28;20425;-83
2024/03/05 08:39:53;;;;;;;17.80;9.25;;;;;;;3.56;100.00;101132.16;5031573;28;20436;-84
2024/03/05 08:42:27;;;;;;;19.00;9.15;;;;;;;3.67;100.00;101139.50;5077961;28;20418;-84
2024/03/05 08:45:04;;;;;;;19.75;9.43;;;;;;;3.71;100.00;101129.13;5053602;28;20422;-84
2024/03/05 08:47:37;;;;;;;21.13;9.88;;;;;;;3.89;100.00;101128.31;5051601;28;20440;-84
2024/03/05 08:50:06;;;;;;;18.57;9.07;;;;;;;3.95;100.00;101134.66;5053540;28;20912;-84
2024/03/05 08:52:40;;;;;;;21.65;9.23;;;;;;;3.94;100.00;101135.72;5050307;28;20963;-84
2024/03/05 08:55:15;;;;;;;18.60;9.10;;;;;;;4.29;100.00;101138.59;5049788;28;20433;-83
2024/03/05 08:57:48;;;;;;;17.98;8.75;;;;;;;4.32;100.00;101142.72;5071485;28;20426;-84
2024/03/05 09:00:18;;;;;;;19.05;8.85;;;;;;;4.10;100.00;101145.88;5049417;28;20425;-84
2024/03/05 09:02:47;;;;;;;19.40;8.82;;;;;;;4.07;100.00;101144.47;5070261;28;20410;-84
2024/03/05 09:05:16;;;;;;;17.65;9.18;;;;;;;4.30;100.00;101144.84;5067962;28;20411;-84
2024/03/05 09:07:44;;;;;;;16.70;8.07;;;;;;;4.50;100.00;101144.56;5049347;28;20429;-84
2024/03/05 09:10:14;;;;;;;17.05;8.60;;;;;;;4.54;100.00;101143.06;5050916;28;20444;-84
2024/03/05 09:12:43;;;;;;;16.70;8.68;;;;;;;4.65;100.00;101136.88;5051453;28;20430;-84
2024/03/05 09:15:18;;;;;;;14.20;7.85;;;;;;;4.54;100.00;101140.38;5051480;28;20418;-84
2024/03/05 09:17:47;;;;;;;14.52;7.53;;;;;;;4.38;100.00;101153.41;5051491;28;20421;-84
2024/03/05 09:20:15;;;;;;;14.07;7.53;;;;;;;4.23;100.00;101150.31;5053783;28;20421;-84
2024/03/05 09:22:44;;;;;;;13.00;7.17;;;;;;;3.86;100.00;101134.16;5055169;28;20429;-83
2024/03/05 09:25:13;;;;;;;14.93;7.28;;;;;;;3.80;100.00;101160.09;5054530;28;20425;-84
2024/03/05 09:27:42;;;;;;;15.70;7.37;;;;;;;3.96;100.00;101150.59;5052172;28;20445;-84
2024/03/05 09:30:13;;;;;;;16.13;7.25;;;;;;;4.00;100.00;101145.59;5051175;28;20445;-83
2024/03/05 09:32:43;;;;;;;17.40;7.25;;;;;;;3.82;100.00;101144.53;5075957;28;20428;-84
2024/03/05 09:35:17;;;;;;;17.23;7.00;;;;;;;4.08;100.00;101135.31;5070593;28;20422;-84
2024/03/05 09:37:46;;;;;;;12.60;6.78;;;;;;;4.10;100.00;101143.19;5055738;28;20422;-84
2024/03/05 09:40:17;;;;;;;14.75;6.70;;;;;;;4.12;100.00;101133.03;5072306;28;20406;-85
2024/03/05 09:42:46;;;;;;;12.13;6.23;;;;;;;4.42;100.00;101145.72;5071212;28;20509;-84
2024/03/05 09:45:20;;;;;;;14.20;6.70;;;;;;;4.29;100.00;101151.25;5051649;28;20437;-85
2024/03/05 09:47:51;;;;;;;15.48;6.53;;;;;;;4.17;100.00;101140.41;5050984;28;20441;-84
2024/03/05 09:50:19;;;;;;;12.02;6.53;;;;;;;4.38;100.00;101147.22;5068185;28;21825;-84
2024/03/05 09:52:47;;;;;;;17.42;7.80;;;;;;;4.65;100.00;101136.88;5047376;28;21266;-84
2024/03/05 09:55:21;;;;;;;12.33;6.57;;;;;;;4.36;100.00;101155.50;5053963;28;20418;-84
2024/03/05 09:57:55;;;;;;;13.50;6.97;;;;;;;4.23;100.00;101150.31;5051405;28;20430;-84
2024/03/05 10:00:24;;;;;;;15.85;6.90;;;;;;;4.26;100.00;101153.34;5047822;28;20422;-84
2024/03/05 10:02:59;;;;;;;14.57;6.70;;;;;;;4.32;100.00;101148.91;5052395;28;20430;-84
2024/03/05 10:05:32;;;;;;;18.70;6.82;;;;;;;4.34;100.00;101148.72;5054946;28;20926;-83
2024/03/05 10:08:01;;;;;;;13.05;6.55;;;;;;;4.51;100.00;101140.81;5066347;28;20413;-84
2024/03/05 10:10:32;;;;;;;14.32;6.57;;;;;;;4.73;100.00;101155.44;5066887;28;20414;-83
2024/03/05 10:13:06;;;;;;;12.00;6.10;;;;;;;4.55;100.00;101166.28;5050779;28;20425;-84
2024/03/05 10:15:42;;;;;;;11.27;5.90;;;;;;;4.66;100.00;101168.19;5055280;28;20460;-84
2024/03/05 10:18:12;;;;;;;13.88;6.22;;;;;;;4.56;100.00;101178.72;5047452;28;20437;-84
2024/03/05 10:20:46;;;;;;;12.88;6.28;;;;;;;4.40;100.00;101175.56;5070648;28;20429;-84
2024/03/05 10:23:19;;;;;;;13.60;6.60;;;;;;;4.13;100.00;101169.69;5051689;28;20414;-83
2024/03/05 10:25:53;;;;;;;13.20;6.40;;;;;;;4.13;100.00;101169.69;5046825;28;20435;-84
2024/03/05 10:28:30;;;;;;;12.80;6.32;;;;;;;4.07;100.00;101159.78;5051651;28;20428;-83
2024/03/05 10:30:59;;;;;;;12.77;6.30;;;;;;;4.22;100.00;101170.19;5050100;28;20419;-84
2024/03/05 10:33:33;;;;;;;14.32;6.40;;;;;;;4.52;100.00;101172.13;5055842;28;20426;-84
2024/03/05 10:36:07;;;;;;;12.40;5.95;;;;;;;4.81;100.00;101161.59;5075257;28;20929;-82
2024/03/05 10:38:41;;;;;;;14.00;6.18;;;;;;;5.10;100.00;101165.28;5047131;28;20425;-84
2024/03/05 10:41:10;;;;;;;13.30;6.17;;;;;;;5.28;100.00;101164.38;5068143;28;21135;-84
2024/03/05 10:43:45;;;;;;;10.30;5.50;;;;;;;5.04;100.00;101148.16;5073104;28;20873;-85
2024/03/05 10:46:14;;;;;;;12.57;6.13;;;;;;;5.13;100.00;101169.41;5053030;28;20426;-84
2024/03/05 10:48:44;;;;;;;12.05;6.50;;;;;;;4.91;100.00;101162.66;5055114;28;20421;-84
2024/03/05 10:51:14;;;;;;;12.60;6.10;;;;;;;5.21;100.00;101171.78;5058310;28;20430;-84
2024/03/05 10:53:49;;;;;;;13.55;6.13;;;;;;;5.22;100.00;101170.69;5051603;28;20418;-85
2024/03/05 10:56:23;;;;;;;13.05;6.13;;;;;;;5.20;100.00;101173.63;5055593;28;20421;-84
2024/03/05 11:01:47;;;;;;;11.85;5.85;;;;;;;5.75;100.00;101172.50;5041179;28;20421;-85
2024/03/05 11:04:21;;;;;;;12.52;5.93;;;;;;;5.89;100.00;101172.28;5055311;28;20432;-85
2024/03/05 11:06:57;;;;;;;11.70;6.20;;;;;;;5.73;100.00;101166.53;5052627;28;20430;-85
2024/03/05 11:09:27;;;;;;;11.10;6.32;;;;;;;5.62;100.00;101162.75;5051613;28;20448;-84
2024/03/05 11:12:00;;;;;;;16.77;6.47;;;;;;;5.84;100.00;101164.88;5055352;28;20417;-85
2024/03/05 11:14:30;;;;;;;14.13;6.53;;;;;;;6.16;100.00;101163.66;5077620;28;20410;-84
2024/03/05 11:17:04;;;;;;;11.93;6.65;;;;;;;5.63;100.00;101163.56;5056822;28;21640;-85
2024/03/05 11:19:37;;;;;;;14.37;6.13;;;;;;;5.75;100.00;101166.28;5058237;28;20475;-85
2024/03/05 11:22:22;;;;;;;11.73;6.30;;;;;;;5.43;100.00;101151.25;5073672;28;20420;-83
2024/03/05 11:24:57;;;;;;;11.77;6.05;;;;;;;5.30;100.00;101166.84;5058707;28;20422;-85
2024/03/05 11:27:31;;;;;;;13.30;6.30;;;;;;;5.47;100.00;101170.50;5055983;28;20426;-85
2024/03/05 11:30:11;;;;;;;11.00;6.10;;;;;;;5.37;100.00;101165.69;5052689;28;20413;-84
2024/03/05 11:32:40;;;;;;;14.17;6.13;;;;;;;5.57;100.00;101159.94;5073719;28;21142;-85
2024/03/05 11:35:11;;;;;;;13.17;6.37;;;;;;;5.67;100.00;101167.44;5057401;28;20967;-85
2024/03/05 11:37:47;;;;;;;13.70;6.20;;;;;;;5.44;100.00;101163.69;5077742;28;20410;-84
2024/03/05 11:40:18;;;;;;;11.20;6.00;;;;;;;5.44;100.00;101162.84;5045149;28;20406;-85